Time;durP1;ratioP1;P1;durP2;ratioP2;P2;SDS_P1;SDS_P2;PMS_P1;PMS_P2;Temp;Humidity;BMP_temperature;BMP_pressure;BME280_temperature;BME280_humidity;BME280_pressure;Samples;Min_cycle;Max_cycle;Signal;HPM_P1;HPM_P2
2023/06/01 00:02:25;;;;;;;;;;;;;;;21.50;63.74;100922.94;7397421;19;1500;-49
2023/06/01 00:04:54;;;;;;;;;;;;;;;21.52;63.95;100920.94;7398279;19;1311;-49
2023/06/01 00:07:25;;;;;;;;;;;;;;;21.55;63.76;100909.91;7398347;19;1547;-49
2023/06/01 00:09:54;;;;;;;;;;;;;;;21.50;63.85;100910.31;7397800;19;1852;-48
2023/06/01 00:12:22;;;;;;;;;;;;;;;21.52;63.27;100912.88;7399017;19;1026;-48
2023/06/01 00:14:50;;;;;;;;;;;;;;;21.50;63.24;100906.78;7397930;19;1845;-48
2023/06/01 00:17:19;;;;;;;;;;;;;;;21.47;63.52;100907.06;7397581;19;1550;-49
2023/06/01 00:19:47;;;;;;;;;;;;;;;21.45;63.68;100910.78;7397850;19;1553;-48
2023/06/01 00:22:16;;;;;;;;;;;;;;;21.45;63.16;100905.41;7396875;19;1617;-49
2023/06/01 00:24:47;;;;;;;;;;;;;;;21.45;63.28;100910.78;7396031;19;1843;-49
2023/06/01 00:27:15;;;;;;;;;;;;;;;21.46;63.67;100908.94;7396521;19;1342;-48
2023/06/01 00:29:44;;;;;;;;;;;;;;;21.39;63.36;100915.88;7397687;19;1216;-48
2023/06/01 00:32:12;;;;;;;;;;;;;;;21.39;63.82;100911.34;7397720;19;1548;-48
2023/06/01 00:34:40;;;;;;;;;;;;;;;21.37;63.75;100909.81;7396139;19;1839;-49
2023/06/01 00:37:08;;;;;;;;;;;;;;;21.32;63.89;100910.22;7397698;19;1547;-48
2023/06/01 00:39:37;;;;;;;;;;;;;;;21.42;63.39;100915.56;7398502;19;1078;-49
2023/06/01 00:42:08;;;;;;;;;;;;;;;21.32;63.63;100909.38;7397349;19;1847;-48
2023/06/01 00:44:36;;;;;;;;;;;;;;;21.24;64.26;100910.13;7397373;19;1553;-49
2023/06/01 00:47:05;;;;;;;;;;;;;;;21.20;64.31;100927.53;7396137;19;1312;-48
2023/06/01 00:49:33;;;;;;;;;;;;;;;21.23;63.82;100911.13;7397099;19;1560;-49
2023/06/01 00:52:02;;;;;;;;;;;;;;;21.18;64.22;100929.53;7395939;19;1271;-48
2023/06/01 00:54:31;;;;;;;;;;;;;;;21.22;64.07;100910.25;7396570;19;1854;-48
2023/06/01 00:57:00;;;;;;;;;;;;;;;21.30;63.72;100914.91;7397025;19;1566;-48
2023/06/01 00:59:31;;;;;;;;;;;;;;;21.31;63.86;100908.53;7396431;19;1548;-49
2023/06/01 01:01:59;;;;;;;;;;;;;;;21.32;63.80;100917.44;7396029;19;1659;-48
2023/06/01 01:04:28;;;;;;;;;;;;;;;21.31;63.40;100905.84;7396906;19;1514;-54
2023/06/01 01:07:03;;;;;;;;;;;;;;;21.21;63.92;100916.63;7398182;19;1559;-49
2023/06/01 01:09:35;;;;;;;;;;;;;;;21.36;63.59;100933.13;7398520;19;1905;-48
2023/06/01 01:12:07;;;;;;;;;;;;;;;21.31;63.44;100919.31;7397648;19;1518;-49
2023/06/01 01:14:40;;;;;;;;;;;;;;;21.26;63.96;100935.03;7397512;19;1967;-49
2023/06/01 01:17:12;;;;;;;;;;;;;;;21.28;63.97;100930.34;7396121;19;1937;-48
2023/06/01 01:19:56;;;;;;;;;;;;;;;21.25;63.97;100926.13;7395993;19;1489;-48
2023/06/01 01:22:27;;;;;;;;;;;;;;;21.21;63.94;100927.41;7395642;19;1588;-48
2023/06/01 01:25:06;;;;;;;;;;;;;;;21.23;63.89;100911.13;7395196;19;1457;-48
2023/06/01 01:27:41;;;;;;;;;;;;;;;21.25;64.02;100944.09;7396960;19;1477;-48
2023/06/01 01:30:13;;;;;;;;;;;;;;;21.15;64.38;100935.19;7397214;19;1741;-48
2023/06/01 01:32:42;;;;;;;;;;;;;;;21.22;63.72;100937.16;7396720;19;1738;-48
2023/06/01 01:35:11;;;;;;;;;;;;;;;21.26;63.61;100921.56;7394286;19;1983;-48
2023/06/01 01:37:40;;;;;;;;;;;;;;;21.25;63.67;100928.81;7396170;19;1794;-48
2023/06/01 01:40:09;;;;;;;;;;;;;;;21.18;64.23;100929.53;7396311;19;1942;-48
2023/06/01 01:42:37;;;;;;;;;;;;;;;21.17;64.09;100919.75;7395810;19;1576;-49
2023/06/01 01:45:06;;;;;;;;;;;;;;;21.28;64.07;100916.88;7397389;19;1505;-49
2023/06/01 01:47:38;;;;;;;;;;;;;;;21.25;63.89;100926.13;7397865;19;1023;-48
2023/06/01 01:50:09;;;;;;;;;;;;;;;21.26;64.12;100919.72;7395724;19;1963;-49
2023/06/01 01:52:40;;;;;;;;;;;;;;;21.30;64.14;100930.19;7395520;19;1612;-48
2023/06/01 01:55:09;;;;;;;;;;;;;;;21.30;63.82;100922.13;7394700;19;1916;-48
2023/06/01 01:57:38;;;;;;;;;;;;;;;21.27;64.09;100942.09;7397171;19;1813;-48
2023/06/01 02:00:11;;;;;;;;;;;;;;;21.22;64.35;100930.94;7402661;19;1672;-48
2023/06/01 02:02:42;;;;;;;;;;;;;;;21.22;64.41;100930.94;7402230;19;1208;-48
2023/06/01 02:05:10;;;;;;;;;;;;;;;21.35;63.53;100936.00;7402659;19;1539;-49
2023/06/01 02:07:39;;;;;;;;;;;;;;;21.29;64.12;100926.66;7402474;19;1560;-48
2023/06/01 02:10:08;;;;;;;;;;;;;;;21.20;64.14;100923.00;7402398;19;1205;-49
2023/06/01 02:12:36;;;;;;;;;;;;;;;21.24;64.17;100937.84;7402290;19;1639;-49
2023/06/01 02:15:05;;;;;;;;;;;;;;;21.23;63.94;100933.47;7400950;19;1946;-48
2023/06/01 02:17:34;;;;;;;;;;;;;;;21.24;63.68;100947.75;7402579;19;1352;-48
2023/06/01 02:20:06;;;;;;;;;;;;;;;21.19;63.89;100955.44;7403033;19;1381;-48
2023/06/01 02:22:34;;;;;;;;;;;;;;;21.21;63.89;100956.97;7404111;19;1675;-49
2023/06/01 02:25:04;;;;;;;;;;;;;;;21.20;64.01;100957.97;7402076;19;1052;-48
2023/06/01 02:27:33;;;;;;;;;;;;;;;21.23;63.90;100954.16;7403254;19;1454;-48
2023/06/01 02:30:01;;;;;;;;;;;;;;;21.19;63.88;100953.59;7402759;19;1869;-49
2023/06/01 02:32:30;;;;;;;;;;;;;;;21.28;63.62;100932.19;7402688;19;1560;-48
2023/06/01 02:34:58;;;;;;;;;;;;;;;21.26;63.64;100935.03;7401107;19;1851;-48
2023/06/01 02:37:29;;;;;;;;;;;;;;;21.14;63.91;100923.59;7400301;19;1591;-48
2023/06/01 02:39:57;;;;;;;;;;;;;;;21.22;63.53;100947.06;7400868;19;1506;-48
2023/06/01 02:42:26;;;;;;;;;;;;;;;21.24;63.70;100937.00;7402075;19;1501;-48
2023/06/01 02:44:54;;;;;;;;;;;;;;;21.13;63.83;100934.47;7401347;19;1307;-48
2023/06/01 02:47:22;;;;;;;;;;;;;;;21.13;63.59;100943.41;7401150;19;1580;-48
2023/06/01 02:49:50;;;;;;;;;;;;;;;21.14;63.86;100942.41;7400295;19;1531;-48
2023/06/01 02:52:19;;;;;;;;;;;;;;;21.20;63.25;100949.06;7400324;19;1276;-48
2023/06/01 02:54:50;;;;;;;;;;;;;;;21.19;63.54;100952.75;7399285;19;1859;-48
2023/06/01 02:57:18;;;;;;;;;;;;;;;21.25;63.19;100949.47;7400452;19;1464;-48
2023/06/01 02:59:46;;;;;;;;;;;;;;;21.18;63.58;100937.59;7400445;19;1476;-49
2023/06/01 03:02:15;;;;;;;;;;;;;;;21.16;63.57;100959.25;7401170;19;1522;-48
2023/06/01 03:04:43;;;;;;;;;;;;;;;21.17;63.68;100970.84;7400524;19;1469;-48
2023/06/01 03:07:12;;;;;;;;;;;;;;;21.24;63.76;100961.22;7401252;19;1503;-48
2023/06/01 03:09:41;;;;;;;;;;;;;;;21.27;63.61;100966.31;7401167;19;1576;-48
2023/06/01 03:12:12;;;;;;;;;;;;;;;21.22;63.51;100971.28;7400714;19;1612;-48
2023/06/01 03:14:40;;;;;;;;;;;;;;;21.16;64.06;100964.63;7400397;19;1849;-48
2023/06/01 03:17:08;;;;;;;;;;;;;;;21.15;63.83;100962.06;7400582;19;1509;-48
2023/06/01 03:19:37;;;;;;;;;;;;;;;21.19;63.53;100969.72;7399818;19;1706;-49
2023/06/01 03:22:05;;;;;;;;;;;;;;;21.21;63.52;100964.22;7400443;19;1474;-48
2023/06/01 03:24:34;;;;;;;;;;;;;;;21.23;63.64;100972.97;7398023;19;1727;-48
2023/06/01 03:27:04;;;;;;;;;;;;;;;21.18;63.85;100973.41;7400309;19;1591;-48
2023/06/01 03:29:35;;;;;;;;;;;;;;;21.26;63.77;100969.97;7401084;19;1758;-49
2023/06/01 03:32:03;;;;;;;;;;;;;;;21.25;63.73;100985.28;7398782;19;1609;-48
2023/06/01 03:34:32;;;;;;;;;;;;;;;21.20;63.87;100984.00;7398376;19;1854;-48
2023/06/01 03:37:01;;;;;;;;;;;;;;;21.21;63.83;100989.25;7400658;19;1278;-48
2023/06/01 03:39:29;;;;;;;;;;;;;;;21.22;63.73;100982.88;7399195;19;1865;-48
2023/06/01 03:41:57;;;;;;;;;;;;;;;21.22;63.75;100982.03;7399073;19;1276;-48
2023/06/01 03:44:25;;;;;;;;;;;;;;;21.18;63.91;100978.78;7398660;19;1544;-48
2023/06/01 03:46:56;;;;;;;;;;;;;;;21.19;63.65;100980.47;7398517;19;1428;-48
2023/06/01 03:49:24;;;;;;;;;;;;;;;21.21;63.91;100985.72;7399265;19;1623;-48
2023/06/01 03:51:53;;;;;;;;;;;;;;;21.26;63.74;100976.19;7398747;19;1440;-48
2023/06/01 03:54:22;;;;;;;;;;;;;;;21.32;63.75;100995.47;7397983;19;1484;-48
2023/06/01 03:56:50;;;;;;;;;;;;;;;21.43;63.13;100981.88;7396652;19;1873;-49
2023/06/01 03:59:19;;;;;;;;;;;;;;;21.43;63.05;100974.66;7398362;19;1532;-48
2023/06/01 04:01:49;;;;;;;;;;;;;;;21.40;63.22;100972.19;7398987;19;1283;-48
2023/06/01 04:04:20;;;;;;;;;;;;;;;21.43;63.20;100971.13;7399245;19;1264;-48
2023/06/01 04:06:49;;;;;;;;;;;;;;;21.50;63.46;100979.44;7399698;19;1864;-48
2023/06/01 04:09:18;;;;;;;;;;;;;;;21.42;63.63;100964.84;7397595;19;1862;-48
2023/06/01 04:11:46;;;;;;;;;;;;;;;21.47;63.55;101015.56;7397902;19;1837;-48
2023/06/01 04:14:15;;;;;;;;;;;;;;;21.37;64.23;100991.34;7398561;19;1457;-48
2023/06/01 04:16:43;;;;;;;;;;;;;;;21.51;64.24;100970.38;7395545;19;1861;-48
2023/06/01 04:19:12;;;;;;;;;;;;;;;21.34;65.35;100977.34;7398563;19;1492;-48
2023/06/01 04:21:43;;;;;;;;;;;;;;;21.20;66.00;100989.41;7394450;19;1600;-49
2023/06/01 04:24:11;;;;;;;;;;;;;;;21.29;65.63;100987.66;7396160;19;1551;-48
2023/06/01 04:26:39;;;;;;;;;;;;;;;21.26;65.38;100994.19;7397043;19;1418;-48
2023/06/01 04:29:08;;;;;;;;;;;;;;;21.29;66.16;100998.44;7398483;19;1637;-48
2023/06/01 04:31:36;;;;;;;;;;;;;;;21.29;66.19;101001.97;7398605;19;1652;-49
2023/06/01 04:34:05;;;;;;;;;;;;;;;21.38;65.59;100995.72;7398255;19;1291;-48
2023/06/01 04:36:39;;;;;;;;;;;;;;;21.28;65.44;101004.81;7393792;19;1861;-48
2023/06/01 04:39:10;;;;;;;;;;;;;;;21.14;65.54;101016.88;7396252;19;1564;-48
2023/06/01 04:41:38;;;;;;;;;;;;;;;21.38;64.78;101022.63;7395308;19;1179;-49
2023/06/01 04:44:08;;;;;;;;;;;;;;;21.52;64.13;101020.50;7394812;19;1739;-49
2023/06/01 04:46:39;;;;;;;;;;;;;;;21.54;64.73;101029.28;7394722;19;1745;-48
2023/06/01 04:49:08;;;;;;;;;;;;;;;21.53;65.12;101025.75;7396610;19;1346;-49
2023/06/01 04:51:36;;;;;;;;;;;;;;;21.49;64.86;101027.03;7393073;19;1445;-48
2023/06/01 04:54:04;;;;;;;;;;;;;;;21.46;65.06;101008.47;7392415;19;1851;-48
2023/06/01 04:56:35;;;;;;;;;;;;;;;21.41;65.37;101016.97;7391719;19;1899;-49
2023/06/01 04:59:05;;;;;;;;;;;;;;;21.46;65.40;101024.63;7387958;19;1367;-48
2023/06/01 05:01:33;;;;;;;;;;;;;;;21.36;65.88;101024.59;7389067;19;1589;-48
2023/06/01 05:04:01;;;;;;;;;;;;;;;21.42;65.64;101015.09;7395168;19;1940;-49
2023/06/01 05:06:29;;;;;;;;;;;;;;;21.39;65.75;101007.34;7394601;19;1358;-48
2023/06/01 05:08:58;;;;;;;;;;;;;;;21.80;65.08;101016.84;7395510;19;1578;-48
2023/06/01 05:11:26;;;;;;;;;;;;;;;21.48;65.22;101005.66;7393685;19;1505;-48
2023/06/01 05:14:01;;;;;;;;;;;;;;;21.32;66.04;101023.19;7391584;19;1330;-49
2023/06/01 05:16:29;;;;;;;;;;;;;;;21.27;66.30;101020.13;7389503;19;1846;-48
2023/06/01 05:18:57;;;;;;;;;;;;;;;21.29;65.79;101020.81;7390254;19;1387;-48
2023/06/01 05:21:26;;;;;;;;;;;;;;;21.03;66.60;101024.09;7389361;19;1422;-49
2023/06/01 05:23:54;;;;;;;;;;;;;;;21.24;66.10;101029.28;7388250;19;1407;-49
2023/06/01 05:26:22;;;;;;;;;;;;;;;21.33;65.77;101030.28;7389639;19;1418;-49
2023/06/01 05:28:51;;;;;;;;;;;;;;;21.43;65.01;101017.69;7390006;19;1508;-48
2023/06/01 05:31:22;;;;;;;;;;;;;;;21.52;64.44;101020.50;7387122;19;1565;-48
2023/06/01 05:33:51;;;;;;;;;;;;;;;21.33;65.33;101019.53;7396895;19;1799;-48
2023/06/01 05:36:19;;;;;;;;;;;;;;;21.49;65.01;101018.97;7397500;19;1851;-48
2023/06/01 05:38:48;;;;;;;;;;;;;;;21.68;64.52;101015.34;7398406;19;1457;-48
2023/06/01 05:41:16;;;;;;;;;;;;;;;21.83;64.24;101015.72;7398888;19;1779;-48
2023/06/01 05:43:44;;;;;;;;;;;;;;;21.63;64.43;101031.94;7398274;19;1544;-48
2023/06/01 05:46:12;;;;;;;;;;;;;;;21.50;64.95;101030.56;7399019;19;1406;-48
2023/06/01 05:48:43;;;;;;;;;;;;;;;21.46;64.79;101024.63;7403260;19;1517;-48
2023/06/01 05:51:12;;;;;;;;;;;;;;;21.36;65.42;101035.38;7402748;19;1372;-48
2023/06/01 05:53:40;;;;;;;;;;;;;;;21.56;65.13;101027.28;7403300;19;1699;-48
2023/06/01 05:56:09;;;;;;;;;;;;;;;21.55;65.04;101031.00;7401562;19;1904;-49
2023/06/01 05:58:37;;;;;;;;;;;;;;;21.49;64.81;101031.53;7402326;19;1854;-48
2023/06/01 06:01:05;;;;;;;;;;;;;;;21.41;65.20;101022.34;7399940;19;1065;-49
2023/06/01 06:03:34;;;;;;;;;;;;;;;21.48;65.38;101024.47;7401943;19;1951;-48
2023/06/01 06:06:05;;;;;;;;;;;;;;;21.57;64.65;101031.69;7403023;19;1746;-48
2023/06/01 06:08:34;;;;;;;;;;;;;;;21.58;64.80;101017.22;7403464;19;1806;-47
2023/06/01 06:11:02;;;;;;;;;;;;;;;21.68;64.04;101018.03;7402365;19;1697;-48
2023/06/01 06:13:30;;;;;;;;;;;;;;;21.55;64.76;101028.28;7401386;19;1263;-48
2023/06/01 06:15:59;;;;;;;;;;;;;;;21.79;63.88;101020.56;7399638;19;1863;-48
2023/06/01 06:18:27;;;;;;;;;;;;;;;21.83;64.12;101032.72;7401934;19;1461;-48
2023/06/01 06:20:55;;;;;;;;;;;;;;;21.74;64.31;101017.44;7402502;19;1827;-48
2023/06/01 06:23:27;;;;;;;;;;;;;;;21.47;65.20;101030.84;7400040;19;1780;-47
2023/06/01 06:25:55;;;;;;;;;;;;;;;21.35;66.06;101028.31;7397146;19;1382;-48
2023/06/01 06:28:23;;;;;;;;;;;;;;;21.53;66.00;101027.59;7396643;19;1193;-48
2023/06/01 06:30:52;;;;;;;;;;;;;;;21.41;66.12;101027.72;7401669;19;1474;-48
2023/06/01 06:33:20;;;;;;;;;;;;;;;21.35;66.20;101022.94;7401082;19;1591;-48
2023/06/01 06:35:48;;;;;;;;;;;;;;;21.28;66.97;101016.41;7400415;19;1850;-48
2023/06/01 06:38:16;;;;;;;;;;;;;;;21.28;66.88;101024.47;7401433;19;1758;-48
2023/06/01 06:40:47;;;;;;;;;;;;;;;21.61;65.91;101031.25;7400518;19;1595;-48
2023/06/01 06:43:16;;;;;;;;;;;;;;;21.78;65.29;101018.00;7400228;19;1223;-48
2023/06/01 06:45:44;;;;;;;;;;;;;;;21.71;66.03;101015.06;7398085;19;1437;-48
2023/06/01 06:48:12;;;;;;;;;;;;;;;21.42;67.53;101029.41;7396926;19;1528;-48
2023/06/01 06:50:44;;;;;;;;;;;;;;;21.44;68.05;101022.06;7398577;19;1534;-48
2023/06/01 06:53:12;;;;;;;;;;;;;;;21.40;67.28;101026.00;7397133;19;1445;-48
2023/06/01 06:55:42;;;;;;;;;;;;;;;21.53;67.40;101014.97;7399285;19;1868;-48
2023/06/01 06:58:13;;;;;;;;;;;;;;;21.50;67.32;101020.63;7396549;19;1510;-48
2023/06/01 07:00:42;;;;;;;;;;;;;;;21.50;67.40;101019.81;7393461;19;1928;-48
2023/06/01 07:03:10;;;;;;;;;;;;;;;21.49;67.06;101020.78;7396245;19;1414;-48
2023/06/01 07:05:38;;;;;;;;;;;;;;;21.43;67.66;101020.38;7397290;19;1023;-48
2023/06/01 07:08:07;;;;;;;;;;;;;;;21.41;67.50;101021.50;7394850;19;1904;-48
2023/06/01 07:10:35;;;;;;;;;;;;;;;21.41;67.75;101027.72;7396454;19;1735;-48
2023/06/01 07:13:03;;;;;;;;;;;;;;;21.40;67.89;101028.69;7397647;19;1749;-48
2023/06/01 07:15:34;;;;;;;;;;;;;;;21.40;67.81;101026.00;7400639;19;1739;-48
2023/06/01 07:18:03;;;;;;;;;;;;;;;21.42;67.04;101023.19;7398723;19;1849;-48
2023/06/01 07:20:31;;;;;;;;;;;;;;;21.42;67.08;101025.88;7401220;19;1478;-49
2023/06/01 07:22:59;;;;;;;;;;;;;;;21.39;67.77;101024.31;7400702;19;1730;-49
2023/06/01 07:25:28;;;;;;;;;;;;;;;21.35;67.74;101017.53;7398325;19;1221;-48
2023/06/01 07:27:56;;;;;;;;;;;;;;;21.38;67.73;101027.16;7400490;19;1766;-49
2023/06/01 07:30:24;;;;;;;;;;;;;;;21.42;67.24;101023.19;7400426;19;1706;-49
2023/06/01 07:32:55;;;;;;;;;;;;;;;21.33;67.51;101024.91;7399954;19;1381;-50
2023/06/01 07:35:23;;;;;;;;;;;;;;;21.38;67.63;101021.78;7399352;19;1776;-49
2023/06/01 07:37:52;;;;;;;;;;;;;;;21.35;67.48;101012.16;7398276;19;1855;-48
2023/06/01 07:40:20;;;;;;;;;;;;;;;21.42;67.39;101032.09;7400400;19;1858;-49
2023/06/01 07:42:48;;;;;;;;;;;;;;;21.39;67.48;101035.09;7400138;19;1800;-48
2023/06/01 07:45:17;;;;;;;;;;;;;;;21.40;67.42;101026.00;7400165;19;1731;-49
2023/06/01 07:47:45;;;;;;;;;;;;;;;21.36;67.38;101018.38;7400150;19;1105;-49
2023/06/01 07:50:17;;;;;;;;;;;;;;;21.39;67.51;101026.19;7400484;19;1071;-49
2023/06/01 07:52:45;;;;;;;;;;;;;;;21.37;67.61;101020.09;7399837;19;1924;-49
2023/06/01 07:55:15;;;;;;;;;;;;;;;21.47;67.00;101015.56;7397602;19;1948;-49
2023/06/01 07:57:43;;;;;;;;;;;;;;;21.48;67.34;101017.25;7397332;19;1871;-49
2023/06/01 08:00:12;;;;;;;;;;;;;;;21.38;67.54;101029.84;7397557;19;1351;-48
2023/06/01 08:02:41;;;;;;;;;;;;;;;21.39;67.33;101020.81;7397783;19;1485;-49
2023/06/01 08:05:11;;;;;;;;;;;;;;;21.44;67.25;101022.06;7398949;19;1960;-49
2023/06/01 08:07:42;;;;;;;;;;;;;;;21.52;66.58;101009.75;7396512;19;1517;-49
2023/06/01 08:10:11;;;;;;;;;;;;;;;21.54;66.60;101021.19;7397666;19;1791;-48
2023/06/01 08:12:39;;;;;;;;;;;;;;;21.43;66.76;101023.06;7399612;19;1713;-49
2023/06/01 08:15:08;;;;;;;;;;;;;;;21.65;66.00;101024.56;7392228;19;1390;-49
2023/06/01 08:17:37;;;;;;;;;;;;;;;21.71;65.57;101023.13;7393013;19;1846;-49
2023/06/01 08:20:10;;;;;;;;;;;;;;;21.60;65.92;101017.91;7397591;19;1316;-49
2023/06/01 08:22:38;;;;;;;;;;;;;;;21.58;65.62;101004.59;7398250;19;1687;-49
2023/06/01 08:25:10;;;;;;;;;;;;;;;21.63;66.07;101001.50;7397184;19;1213;-48
2023/06/01 08:27:38;;;;;;;;;;;;;;;21.53;66.13;101024.91;7397356;19;1960;-53
2023/06/01 08:30:07;;;;;;;;;;;;;;;21.68;65.66;101007.25;7397432;19;1394;-49
2023/06/01 08:32:35;;;;;;;;;;;;;;;21.74;65.25;101006.69;7396806;19;1355;-49
2023/06/01 08:35:03;;;;;;;;;;;;;;;21.67;65.61;101005.59;7398512;19;1450;-49
2023/06/01 08:37:32;;;;;;;;;;;;;;;21.75;65.47;101005.69;7396255;19;1860;-49
2023/06/01 08:40:00;;;;;;;;;;;;;;;21.69;65.41;101014.38;7397897;19;1598;-49
2023/06/01 08:42:33;;;;;;;;;;;;;;;21.65;65.26;101012.97;7397653;19;1315;-48
2023/06/01 08:45:06;;;;;;;;;;;;;;;21.72;64.96;101019.44;7397918;19;1525;-48
2023/06/01 08:47:35;;;;;;;;;;;;;;;21.42;65.52;101007.88;7396739;19;1469;-49
2023/06/01 08:50:03;;;;;;;;;;;;;;;21.60;65.29;101004.47;7399260;19;1458;-49
2023/06/01 08:52:32;;;;;;;;;;;;;;;21.57;64.97;100999.41;7397992;19;2196;-49
2023/06/01 08:55:01;;;;;;;;;;;;;;;21.73;64.68;100996.91;7397503;19;1873;-49
2023/06/01 08:57:35;;;;;;;;;;;;;;;21.75;64.54;100994.94;7396051;19;1847;-49
2023/06/01 09:00:04;;;;;;;;;;;;;;;21.53;64.20;100998.00;7396955;19;1587;-48
2023/06/01 09:02:32;;;;;;;;;;;;;;;21.51;64.95;100990.06;7397718;19;1478;-49
2023/06/01 09:05:00;;;;;;;;;;;;;;;21.67;64.37;100989.44;7396306;19;1730;-49
2023/06/01 09:07:31;;;;;;;;;;;;;;;21.66;64.66;100995.81;7396393;19;1312;-48
2023/06/01 09:09:59;;;;;;;;;;;;;;;21.62;64.55;100975.56;7397561;19;1074;-49
2023/06/01 09:12:29;;;;;;;;;;;;;;;21.57;65.01;100999.41;7395881;19;1301;-48
2023/06/01 09:15:16;;;;;;;;;;;;;;;21.77;64.38;100987.56;7395721;19;1808;-49
2023/06/01 09:17:46;;;;;;;;;;;;;;;21.68;64.32;100982.22;7394729;19;1851;-49
2023/06/01 09:20:15;;;;;;;;;;;;;;;21.71;64.46;100980.06;7396702;19;1950;-48
2023/06/01 09:22:43;;;;;;;;;;;;;;;21.77;64.65;100989.41;7397945;19;1035;-48
2023/06/01 09:25:13;;;;;;;;;;;;;;;21.64;64.55;100984.34;7394366;19;1864;-48
2023/06/01 09:27:45;;;;;;;;;;;;;;;21.68;64.84;100980.34;7396210;19;1442;-49
2023/06/01 09:30:17;;;;;;;;;;;;;;;21.67;64.37;100978.69;7396274;19;1721;-48
2023/06/01 09:32:50;;;;;;;;;;;;;;;21.79;64.28;100982.88;7397137;19;1730;-48
2023/06/01 09:35:18;;;;;;;;;;;;;;;21.78;64.53;100975.78;7397037;19;1427;-49
2023/06/01 09:37:57;;;;;;;;;;;;;;;21.64;64.64;100974.41;7393248;19;1841;-49
2023/06/01 09:40:25;;;;;;;;;;;;;;;21.82;64.30;100984.41;7394938;19;1378;-49
2023/06/01 09:42:53;;;;;;;;;;;;;;;21.73;63.69;100966.47;7395675;19;1359;-49
2023/06/01 09:45:25;;;;;;;;;;;;;;;21.77;63.95;100974.09;7395329;19;1600;-48
2023/06/01 09:47:54;;;;;;;;;;;;;;;21.88;63.78;100974.88;7394498;19;1838;-48
2023/06/01 09:50:35;;;;;;;;;;;;;;;21.79;64.08;100963.19;7396212;19;1282;-49
2023/06/01 09:53:03;;;;;;;;;;;;;;;21.67;64.54;100967.91;7397191;19;1747;-48
2023/06/01 09:55:32;;;;;;;;;;;;;;;21.72;64.29;100968.28;7395862;19;1808;-49
2023/06/01 09:58:15;;;;;;;;;;;;;;;21.88;63.51;100969.50;7394770;19;1838;-47
2023/06/01 10:00:46;;;;;;;;;;;;;;;21.81;63.97;100963.88;7395256;19;1961;-48
2023/06/01 10:03:15;;;;;;;;;;;;;;;21.79;63.77;100964.03;7392834;19;1536;-48
2023/06/01 10:05:43;;;;;;;;;;;;;;;21.85;63.64;100971.50;7395458;19;1004;-48
2023/06/01 10:08:12;;;;;;;;;;;;;;;21.72;63.98;100959.38;7394511;19;1522;-48
2023/06/01 10:10:41;;;;;;;;;;;;;;;21.68;63.88;100961.50;7395084;19;1743;-49
2023/06/01 10:13:09;;;;;;;;;;;;;;;21.75;63.75;100964.47;7395040;19;1622;-49
2023/06/01 10:15:37;;;;;;;;;;;;;;;21.74;63.95;100958.22;7393989;19;1788;-49
2023/06/01 10:18:09;;;;;;;;;;;;;;;21.73;63.86;100945.78;7392906;19;1858;-48
2023/06/01 10:20:39;;;;;;;;;;;;;;;21.74;63.63;100954.69;7402137;19;1582;-48
2023/06/01 10:23:07;;;;;;;;;;;;;;;21.64;64.09;100952.03;7402057;19;1469;-48
2023/06/01 10:25:38;;;;;;;;;;;;;;;21.75;63.36;100938.41;7400141;19;1547;-48
2023/06/01 10:28:07;;;;;;;;;;;;;;;21.67;63.96;100948.22;7403012;19;1528;-48
2023/06/01 10:30:36;;;;;;;;;;;;;;;21.70;63.74;100946.06;7404247;19;1017;-49
2023/06/01 10:33:04;;;;;;;;;;;;;;;21.69;63.25;100933.63;7400518;19;1845;-48
2023/06/01 10:35:47;;;;;;;;;;;;;;;21.63;63.71;100928.84;7400972;19;1552;-48
2023/06/01 10:38:29;;;;;;;;;;;;;;;21.75;63.35;100926.78;7400258;19;1848;-48
2023/06/01 10:41:11;;;;;;;;;;;;;;;21.66;63.62;100920.44;7401492;19;1515;-48
2023/06/01 10:43:43;;;;;;;;;;;;;;;21.79;63.09;100934.41;7399435;19;1817;-48
2023/06/01 10:46:29;;;;;;;;;;;;;;;21.87;63.17;100930.13;7402732;19;1790;-48
2023/06/01 10:48:58;;;;;;;;;;;;;;;21.75;63.80;100911.47;7400097;19;1481;-49
2023/06/01 10:51:27;;;;;;;;;;;;;;;21.85;63.21;100904.19;7402002;19;1464;-49
2023/06/01 10:54:18;;;;;;;;;;;;;;;21.74;63.39;100915.16;7402738;19;1556;-48
2023/06/01 10:56:46;;;;;;;;;;;;;;;21.81;63.51;100900.13;7402325;19;2421;-48
2023/06/01 10:59:15;;;;;;;;;;;;;;;21.79;63.50;100904.81;7399577;19;1853;-48
2023/06/01 11:01:44;;;;;;;;;;;;;;;21.79;63.70;100894.03;7401869;19;1849;-48
2023/06/01 11:04:13;;;;;;;;;;;;;;;21.71;63.79;100902.00;7401028;19;1947;-49
2023/06/01 11:06:42;;;;;;;;;;;;;;;21.81;63.49;100920.81;7398778;19;1556;-49
2023/06/01 11:09:16;;;;;;;;;;;;;;;21.90;63.26;100909.13;7402941;19;953;-49
2023/06/01 11:12:00;;;;;;;;;;;;;;;21.74;64.05;100899.00;7402130;19;1240;-48
2023/06/01 11:14:30;;;;;;;;;;;;;;;21.77;63.80;100897.88;7402226;19;960;-49
2023/06/01 11:17:19;;;;;;;;;;;;;;;21.72;63.86;100889.41;7402028;19;1864;-49
2023/06/01 11:19:47;;;;;;;;;;;;;;;21.77;64.02;100893.34;7401671;19;1863;-49
2023/06/01 11:22:17;;;;;;;;;;;;;;;21.74;63.97;100882.03;7401934;19;1490;-49
2023/06/01 11:24:49;;;;;;;;;;;;;;;21.97;63.02;100894.06;7398343;19;1620;-49
2023/06/01 11:27:18;;;;;;;;;;;;;;;21.85;63.50;100879.97;7401631;19;1849;-48
2023/06/01 11:29:50;;;;;;;;;;;;;;;21.79;63.71;100868.97;7398871;19;1402;-49
2023/06/01 11:32:24;;;;;;;;;;;;;;;21.77;63.54;100869.09;7400648;19;1796;-49
2023/06/01 11:34:55;;;;;;;;;;;;;;;21.87;63.11;100870.91;7400157;19;1457;-48
2023/06/01 11:37:25;;;;;;;;;;;;;;;21.91;62.91;100877.69;7400209;19;1868;-49
2023/06/01 11:40:08;;;;;;;;;;;;;;;21.82;63.30;100864.09;7400863;19;1827;-49
2023/06/01 11:42:37;;;;;;;;;;;;;;;21.90;62.98;100859.81;7402601;19;1019;-48
2023/06/01 11:45:07;;;;;;;;;;;;;;;21.83;62.75;100865.81;7399939;19;1936;-49
2023/06/01 11:47:37;;;;;;;;;;;;;;;21.84;62.75;100866.66;7399947;19;1481;-48
2023/06/01 11:50:06;;;;;;;;;;;;;;;21.84;62.27;100872.03;7399079;19;1804;-49
2023/06/01 11:52:34;;;;;;;;;;;;;;;21.84;62.36;100872.03;7399617;19;1552;-48
2023/06/01 11:55:07;;;;;;;;;;;;;;;21.76;62.25;100874.63;7398803;19;1844;-49
2023/06/01 11:57:35;;;;;;;;;;;;;;;21.85;62.07;100869.19;7399273;19;1853;-49
2023/06/01 12:00:07;;;;;;;;;;;;;;;21.88;62.33;100865.34;7399836;19;1386;-49
2023/06/01 12:02:35;;;;;;;;;;;;;;;21.86;61.88;100848.50;7400021;19;983;-48
2023/06/01 12:05:06;;;;;;;;;;;;;;;21.70;62.19;100859.94;7399059;19;1951;-48
2023/06/01 12:07:35;;;;;;;;;;;;;;;21.74;61.04;100850.56;7399447;19;1394;-48
2023/06/01 12:10:05;;;;;;;;;;;;;;;21.76;61.43;100840.47;7397952;19;1419;-48
2023/06/01 12:12:36;;;;;;;;;;;;;;;21.74;61.24;100829.03;7399285;19;1438;-49
2023/06/01 12:15:05;;;;;;;;;;;;;;;21.71;61.52;100832.03;7399319;19;1682;-49
2023/06/01 12:17:49;;;;;;;;;;;;;;;21.72;61.30;100814.88;7397737;19;1854;-48
2023/06/01 12:20:28;;;;;;;;;;;;;;;21.66;61.33;100807.41;7398361;19;1556;-48
2023/06/01 12:22:56;;;;;;;;;;;;;;;21.76;61.16;100810.88;7397931;19;1536;-48
2023/06/01 12:25:25;;;;;;;;;;;;;;;21.78;60.88;100811.56;7397222;19;1618;-49
2023/06/01 12:28:10;;;;;;;;;;;;;;;21.73;61.51;100797.75;7399902;19;1110;-47
2023/06/01 12:30:38;;;;;;;;;;;;;;;21.82;60.69;100798.66;7400049;19;960;-48
2023/06/01 12:33:07;;;;;;;;;;;;;;;21.83;60.41;100801.19;7396306;19;1646;-48
2023/06/01 12:35:35;;;;;;;;;;;;;;;21.95;60.13;100793.75;7398581;19;1460;-48
2023/06/01 12:38:10;;;;;;;;;;;;;;;21.95;60.70;100788.34;7397762;19;1849;-49
2023/06/01 12:40:38;;;;;;;;;;;;;;;22.13;60.32;100801.81;7399348;19;1216;-48
2023/06/01 12:43:19;;;;;;;;;;;;;;;21.99;60.79;100805.91;7397534;19;1478;-48
2023/06/01 12:45:47;;;;;;;;;;;;;;;22.01;60.13;100813.81;7397685;19;1864;-49
2023/06/01 12:48:30;;;;;;;;;;;;;;;21.68;61.92;100794.66;7396009;19;1517;-48
2023/06/01 12:50:58;;;;;;;;;;;;;;;21.59;62.24;100800.97;7396779;19;1451;-48
2023/06/01 12:53:27;;;;;;;;;;;;;;;21.56;63.72;100803.94;7397355;19;1964;-49
2023/06/01 12:55:55;;;;;;;;;;;;;;;21.54;65.85;100789.78;7398293;19;1611;-48
2023/06/01 12:58:27;;;;;;;;;;;;;;;21.55;66.57;100786.13;7397554;19;1895;-49
2023/06/01 13:00:56;;;;;;;;;;;;;;;21.42;66.14;100797.19;7396405;19;1822;-48
2023/06/01 13:03:24;;;;;;;;;;;;;;;21.54;66.50;100803.25;7395905;19;1813;-48